sensor_id;sensor_type;location;lat;lon;timestamp;temperature;humidity
10390;DHT22;5241;47.830;12.972;2023-06-01T00:00:16;13.60;99.90
10390;DHT22;5241;47.830;12.972;2023-06-01T00:02:41;13.60;99.90
10390;DHT22;5241;47.830;12.972;2023-06-01T00:05:07;13.50;99.90
10390;DHT22;5241;47.830;12.972;2023-06-01T00:07:33;13.50;99.90
10390;DHT22;5241;47.830;12.972;2023-06-01T00:09:59;13.40;99.90
10390;DHT22;5241;47.830;12.972;2023-06-01T00:12:26;13.30;99.90
10390;DHT22;5241;47.830;12.972;2023-06-01T00:14:52;13.20;99.90
10390;DHT22;5241;47.830;12.972;2023-06-01T00:17:17;13.10;99.90
10390;DHT22;5241;47.830;12.972;2023-06-01T00:19:45;13.10;99.90
10390;DHT22;5241;47.830;12.972;2023-06-01T00:22:12;13.00;99.90
10390;DHT22;5241;47.830;12.972;2023-06-01T00:24:37;13.10;99.90
10390;DHT22;5241;47.830;12.972;2023-06-01T00:27:03;13.10;99.90
10390;DHT22;5241;47.830;12.972;2023-06-01T00:29:29;13.10;99.90
10390;DHT22;5241;47.830;12.972;2023-06-01T00:31:55;12.90;99.90
10390;DHT22;5241;47.830;12.972;2023-06-01T00:34:20;12.90;99.90
10390;DHT22;5241;47.830;12.972;2023-06-01T00:36:46;12.90;99.90
10390;DHT22;5241;47.830;12.972;2023-06-01T00:39:12;13.00;99.90
10390;DHT22;5241;47.830;12.972;2023-06-01T00:41:37;13.00;99.90
10390;DHT22;5241;47.830;12.972;2023-06-01T00:44:03;13.00;99.90
10390;DHT22;5241;47.830;12.972;2023-06-01T00:46:30;13.00;99.90
10390;DHT22;5241;47.830;12.972;2023-06-01T00:48:56;12.80;99.90
10390;DHT22;5241;47.830;12.972;2023-06-01T00:51:22;12.90;99.90
10390;DHT22;5241;47.830;12.972;2023-06-01T00:53:48;12.80;99.90
10390;DHT22;5241;47.830;12.972;2023-06-01T00:56:14;12.60;99.90
10390;DHT22;5241;47.830;12.972;2023-06-01T00:58:40;12.60;99.90
10390;DHT22;5241;47.830;12.972;2023-06-01T01:01:07;12.60;99.90
10390;DHT22;5241;47.830;12.972;2023-06-01T01:03:45;12.60;99.90
10390;DHT22;5241;47.830;12.972;2023-06-01T01:06:22;12.60;99.90
10390;DHT22;5241;47.830;12.972;2023-06-01T01:11:41;12.50;99.90
10390;DHT22;5241;47.830;12.972;2023-06-01T01:17:36;12.50;99.90
10390;DHT22;5241;47.830;12.972;2023-06-01T01:20:10;12.50;99.90
10390;DHT22;5241;47.830;12.972;2023-06-01T01:30:37;12.40;99.90
10390;DHT22;5241;47.830;12.972;2023-06-01T01:33:03;12.40;99.90
10390;DHT22;5241;47.830;12.972;2023-06-01T01:35:30;12.30;99.90
10390;DHT22;5241;47.830;12.972;2023-06-01T01:37:57;12.30;99.90
10390;DHT22;5241;47.830;12.972;2023-06-01T01:40:23;12.30;99.90
10390;DHT22;5241;47.830;12.972;2023-06-01T01:42:50;12.20;99.90
10390;DHT22;5241;47.830;12.972;2023-06-01T01:45:17;12.20;99.90
10390;DHT22;5241;47.830;12.972;2023-06-01T01:47:51;12.20;99.90
10390;DHT22;5241;47.830;12.972;2023-06-01T01:50:22;12.20;99.90
10390;DHT22;5241;47.830;12.972;2023-06-01T01:52:49;12.20;99.90
10390;DHT22;5241;47.830;12.972;2023-06-01T01:55:17;12.20;99.90
10390;DHT22;5241;47.830;12.972;2023-06-01T01:57:44;12.20;99.90
10390;DHT22;5241;47.830;12.972;2023-06-01T02:00:10;12.20;99.90
10390;DHT22;5241;47.830;12.972;2023-06-01T02:02:38;12.20;99.90
10390;DHT22;5241;47.830;12.972;2023-06-01T02:05:04;12.10;99.90
10390;DHT22;5241;47.830;12.972;2023-06-01T02:07:30;12.10;99.90
10390;DHT22;5241;47.830;12.972;2023-06-01T02:09:56;12.10;99.90
10390;DHT22;5241;47.830;12.972;2023-06-01T02:12:21;12.00;99.90
10390;DHT22;5241;47.830;12.972;2023-06-01T02:14:47;12.00;99.90
10390;DHT22;5241;47.830;12.972;2023-06-01T02:17:12;11.90;99.90
10390;DHT22;5241;47.830;12.972;2023-06-01T02:19:41;11.70;99.90
10390;DHT22;5241;47.830;12.972;2023-06-01T02:22:07;11.60;99.90
10390;DHT22;5241;47.830;12.972;2023-06-01T02:24:32;11.60;99.90
10390;DHT22;5241;47.830;12.972;2023-06-01T02:26:58;11.60;99.90
10390;DHT22;5241;47.830;12.972;2023-06-01T02:29:23;11.60;99.90
10390;DHT22;5241;47.830;12.972;2023-06-01T02:31:50;11.50;99.90
10390;DHT22;5241;47.830;12.972;2023-06-01T02:34:18;11.50;99.90
10390;DHT22;5241;47.830;12.972;2023-06-01T02:36:44;11.50;99.90
10390;DHT22;5241;47.830;12.972;2023-06-01T02:39:10;11.40;99.90
10390;DHT22;5241;47.830;12.972;2023-06-01T02:41:35;11.40;99.90
10390;DHT22;5241;47.830;12.972;2023-06-01T02:44:01;11.40;99.90
10390;DHT22;5241;47.830;12.972;2023-06-01T02:46:27;11.40;99.90
10390;DHT22;5241;47.830;12.972;2023-06-01T02:48:53;11.30;99.90
10390;DHT22;5241;47.830;12.972;2023-06-01T02:51:19;11.40;99.90
10390;DHT22;5241;47.830;12.972;2023-06-01T02:53:45;11.30;99.90
10390;DHT22;5241;47.830;12.972;2023-06-01T02:56:12;11.50;99.90
10390;DHT22;5241;47.830;12.972;2023-06-01T02:58:38;11.50;99.90
10390;DHT22;5241;47.830;12.972;2023-06-01T03:01:03;11.50;99.90
10390;DHT22;5241;47.830;12.972;2023-06-01T03:03:29;11.60;99.90
10390;DHT22;5241;47.830;12.972;2023-06-01T03:05:55;11.60;99.90
10390;DHT22;5241;47.830;12.972;2023-06-01T03:08:23;11.50;99.90
10390;DHT22;5241;47.830;12.972;2023-06-01T03:10:52;11.50;99.90
10390;DHT22;5241;47.830;12.972;2023-06-01T03:13:17;11.50;99.90
10390;DHT22;5241;47.830;12.972;2023-06-01T03:15:43;11.40;99.90
10390;DHT22;5241;47.830;12.972;2023-06-01T03:18:09;11.40;99.90
10390;DHT22;5241;47.830;12.972;2023-06-01T03:20:34;11.30;99.90
10390;DHT22;5241;47.830;12.972;2023-06-01T03:23:00;11.30;99.90
10390;DHT22;5241;47.830;12.972;2023-06-01T03:25:26;11.30;99.90
10390;DHT22;5241;47.830;12.972;2023-06-01T03:27:51;11.20;99.90
10390;DHT22;5241;47.830;12.972;2023-06-01T03:30:17;11.20;99.90
10390;DHT22;5241;47.830;12.972;2023-06-01T03:32:44;11.20;99.90
10390;DHT22;5241;47.830;12.972;2023-06-01T03:35:11;11.20;99.90
10390;DHT22;5241;47.830;12.972;2023-06-01T03:37:38;11.20;99.90
10390;DHT22;5241;47.830;12.972;2023-06-01T03:40:05;11.20;99.90
10390;DHT22;5241;47.830;12.972;2023-06-01T03:42:42;11.30;99.90
10390;DHT22;5241;47.830;12.972;2023-06-01T03:45:09;11.30;99.90
10390;DHT22;5241;47.830;12.972;2023-06-01T03:47:35;11.40;99.90
10390;DHT22;5241;47.830;12.972;2023-06-01T03:50:02;11.30;99.90
10390;DHT22;5241;47.830;12.972;2023-06-01T03:52:28;11.30;99.90
10390;DHT22;5241;47.830;12.972;2023-06-01T03:54:58;11.30;99.90
10390;DHT22;5241;47.830;12.972;2023-06-01T03:57:23;11.40;99.90
10390;DHT22;5241;47.830;12.972;2023-06-01T03:59:50;11.40;99.90
10390;DHT22;5241;47.830;12.972;2023-06-01T04:02:16;11.40;99.90
10390;DHT22;5241;47.830;12.972;2023-06-01T04:04:44;11.50;99.90
10390;DHT22;5241;47.830;12.972;2023-06-01T04:07:13;11.50;99.90
10390;DHT22;5241;47.830;12.972;2023-06-01T04:09:47;11.50;99.90
10390;DHT22;5241;47.830;12.972;2023-06-01T04:12:13;11.60;99.90
10390;DHT22;5241;47.830;12.972;2023-06-01T04:14:39;11.60;99.90
10390;DHT22;5241;47.830;12.972;2023-06-01T04:17:05;11.60;99.90
10390;DHT22;5241;47.830;12.972;2023-06-01T04:19:32;11.70;99.90
10390;DHT22;5241;47.830;12.972;2023-06-01T04:21:58;11.70;99.90
10390;DHT22;5241;47.830;12.972;2023-06-01T04:24:23;11.80;99.90
10390;DHT22;5241;47.830;12.972;2023-06-01T04:26:49;11.80;99.90
10390;DHT22;5241;47.830;12.972;2023-06-01T04:29:15;12.00;99.90
10390;DHT22;5241;47.830;12.972;2023-06-01T04:31:41;12.00;99.90
10390;DHT22;5241;47.830;12.972;2023-06-01T04:34:06;12.10;99.90
10390;DHT22;5241;47.830;12.972;2023-06-01T04:36:35;12.20;99.90
10390;DHT22;5241;47.830;12.972;2023-06-01T04:39:08;12.30;99.90
10390;DHT22;5241;47.830;12.972;2023-06-01T04:41:34;12.40;99.90
10390;DHT22;5241;47.830;12.972;2023-06-01T04:44:03;12.50;99.90
10390;DHT22;5241;47.830;12.972;2023-06-01T04:46:32;12.60;99.90
10390;DHT22;5241;47.830;12.972;2023-06-01T04:48:58;12.70;99.90
10390;DHT22;5241;47.830;12.972;2023-06-01T04:51:26;12.90;99.90
10390;DHT22;5241;47.830;12.972;2023-06-01T04:53:53;13.00;99.90
10390;DHT22;5241;47.830;12.972;2023-06-01T04:56:23;13.10;99.90
10390;DHT22;5241;47.830;12.972;2023-06-01T04:58:56;13.20;99.90
10390;DHT22;5241;47.830;12.972;2023-06-01T05:01:25;13.40;99.90
10390;DHT22;5241;47.830;12.972;2023-06-01T05:03:52;13.60;99.90
10390;DHT22;5241;47.830;12.972;2023-06-01T05:06:20;13.70;99.90
10390;DHT22;5241;47.830;12.972;2023-06-01T05:08:47;13.90;99.90
10390;DHT22;5241;47.830;12.972;2023-06-01T05:11:13;14.10;99.90
10390;DHT22;5241;47.830;12.972;2023-06-01T05:13:39;14.30;99.90
10390;DHT22;5241;47.830;12.972;2023-06-01T05:16:06;14.40;99.90
10390;DHT22;5241;47.830;12.972;2023-06-01T05:18:33;14.50;99.90
10390;DHT22;5241;47.830;12.972;2023-06-01T05:21:00;14.60;99.90
10390;DHT22;5241;47.830;12.972;2023-06-01T05:23:26;14.60;99.90
10390;DHT22;5241;47.830;12.972;2023-06-01T05:25:52;14.70;99.90
10390;DHT22;5241;47.830;12.972;2023-06-01T05:28:20;14.80;99.90
10390;DHT22;5241;47.830;12.972;2023-06-01T05:30:46;15.00;99.90
10390;DHT22;5241;47.830;12.972;2023-06-01T05:33:12;15.50;99.90
10390;DHT22;5241;47.830;12.972;2023-06-01T05:35:37;15.80;99.90
10390;DHT22;5241;47.830;12.972;2023-06-01T05:38:03;16.20;99.90
10390;DHT22;5241;47.830;12.972;2023-06-01T05:40:29;16.90;99.90
10390;DHT22;5241;47.830;12.972;2023-06-01T05:42:54;17.50;99.90
10390;DHT22;5241;47.830;12.972;2023-06-01T05:45:20;18.20;99.90
10390;DHT22;5241;47.830;12.972;2023-06-01T05:47:45;18.50;99.90
10390;DHT22;5241;47.830;12.972;2023-06-01T05:50:11;19.10;99.90
10390;DHT22;5241;47.830;12.972;2023-06-01T05:52:37;19.50;99.90
10390;DHT22;5241;47.830;12.972;2023-06-01T05:55:04;20.00;99.90
10390;DHT22;5241;47.830;12.972;2023-06-01T05:57:30;20.50;99.90
10390;DHT22;5241;47.830;12.972;2023-06-01T05:59:56;20.60;99.90
10390;DHT22;5241;47.830;12.972;2023-06-01T06:02:22;20.60;99.90
10390;DHT22;5241;47.830;12.972;2023-06-01T06:04:47;20.80;99.90
10390;DHT22;5241;47.830;12.972;2023-06-01T06:07:13;21.00;98.40
10390;DHT22;5241;47.830;12.972;2023-06-01T06:09:39;21.30;98.30
10390;DHT22;5241;47.830;12.972;2023-06-01T06:12:05;21.00;98.10
10390;DHT22;5241;47.830;12.972;2023-06-01T06:14:31;21.60;97.90
10390;DHT22;5241;47.830;12.972;2023-06-01T06:16:57;21.70;97.50
10390;DHT22;5241;47.830;12.972;2023-06-01T06:19:23;21.70;97.60
10390;DHT22;5241;47.830;12.972;2023-06-01T06:21:48;22.00;96.90
10390;DHT22;5241;47.830;12.972;2023-06-01T06:24:14;22.20;96.40
10390;DHT22;5241;47.830;12.972;2023-06-01T06:26:40;22.40;93.90
10390;DHT22;5241;47.830;12.972;2023-06-01T06:29:05;22.40;94.60
10390;DHT22;5241;47.830;12.972;2023-06-01T06:31:31;22.40;93.80
10390;DHT22;5241;47.830;12.972;2023-06-01T06:33:56;21.90;94.60
10390;DHT22;5241;47.830;12.972;2023-06-01T06:36:22;22.00;94.50
10390;DHT22;5241;47.830;12.972;2023-06-01T06:38:47;22.70;92.80
10390;DHT22;5241;47.830;12.972;2023-06-01T06:41:13;22.90;92.20
10390;DHT22;5241;47.830;12.972;2023-06-01T06:43:39;23.20;91.50
10390;DHT22;5241;47.830;12.972;2023-06-01T06:46:04;22.80;92.40
10390;DHT22;5241;47.830;12.972;2023-06-01T06:48:30;23.00;92.90
10390;DHT22;5241;47.830;12.972;2023-06-01T06:50:56;23.30;90.80
10390;DHT22;5241;47.830;12.972;2023-06-01T06:53:21;23.00;91.90
10390;DHT22;5241;47.830;12.972;2023-06-01T06:55:47;23.00;91.10
10390;DHT22;5241;47.830;12.972;2023-06-01T06:58:12;23.40;90.90
10390;DHT22;5241;47.830;12.972;2023-06-01T07:00:39;23.90;89.30
10390;DHT22;5241;47.830;12.972;2023-06-01T07:03:05;23.60;88.20
10390;DHT22;5241;47.830;12.972;2023-06-01T07:05:30;23.40;89.00
10390;DHT22;5241;47.830;12.972;2023-06-01T07:07:56;23.40;90.60
10390;DHT22;5241;47.830;12.972;2023-06-01T07:10:21;23.00;91.10
10390;DHT22;5241;47.830;12.972;2023-06-01T07:12:47;23.20;91.50
10390;DHT22;5241;47.830;12.972;2023-06-01T07:15:12;23.60;90.20
10390;DHT22;5241;47.830;12.972;2023-06-01T07:17:38;24.20;86.80
10390;DHT22;5241;47.830;12.972;2023-06-01T07:20:04;24.10;86.90
10390;DHT22;5241;47.830;12.972;2023-06-01T07:22:32;24.30;83.30
10390;DHT22;5241;47.830;12.972;2023-06-01T07:24:57;23.80;86.40
10390;DHT22;5241;47.830;12.972;2023-06-01T07:27:23;23.70;89.20
10390;DHT22;5241;47.830;12.972;2023-06-01T07:29:48;23.80;88.10
10390;DHT22;5241;47.830;12.972;2023-06-01T07:32:23;23.70;88.50
10390;DHT22;5241;47.830;12.972;2023-06-01T07:34:49;23.90;87.00
10390;DHT22;5241;47.830;12.972;2023-06-01T07:37:14;24.20;86.70
10390;DHT22;5241;47.830;12.972;2023-06-01T07:39:40;24.40;84.70
10390;DHT22;5241;47.830;12.972;2023-06-01T07:42:06;23.80;87.50
10390;DHT22;5241;47.830;12.972;2023-06-01T07:44:32;23.50;87.60
10390;DHT22;5241;47.830;12.972;2023-06-01T07:46:58;24.30;84.10
10390;DHT22;5241;47.830;12.972;2023-06-01T07:49:24;24.30;85.30
10390;DHT22;5241;47.830;12.972;2023-06-01T07:51:49;24.60;83.90
10390;DHT22;5241;47.830;12.972;2023-06-01T07:54:17;24.30;88.00
10390;DHT22;5241;47.830;12.972;2023-06-01T07:56:42;24.30;86.90
10390;DHT22;5241;47.830;12.972;2023-06-01T07:59:08;23.60;88.60
10390;DHT22;5241;47.830;12.972;2023-06-01T08:01:34;24.40;85.50
10390;DHT22;5241;47.830;12.972;2023-06-01T08:03:59;24.20;85.00
10390;DHT22;5241;47.830;12.972;2023-06-01T08:06:27;24.10;85.60
10390;DHT22;5241;47.830;12.972;2023-06-01T08:08:52;24.20;86.90
10390;DHT22;5241;47.830;12.972;2023-06-01T08:11:18;25.00;85.00
10390;DHT22;5241;47.830;12.972;2023-06-01T08:13:44;24.60;85.90
10390;DHT22;5241;47.830;12.972;2023-06-01T08:16:12;24.40;85.80
10390;DHT22;5241;47.830;12.972;2023-06-01T08:18:40;25.00;86.10
10390;DHT22;5241;47.830;12.972;2023-06-01T08:21:06;25.30;83.60
10390;DHT22;5241;47.830;12.972;2023-06-01T08:23:34;24.90;83.70
10390;DHT22;5241;47.830;12.972;2023-06-01T08:25:59;24.70;84.40
10390;DHT22;5241;47.830;12.972;2023-06-01T08:28:25;24.60;84.80
10390;DHT22;5241;47.830;12.972;2023-06-01T08:30:51;24.80;85.80
10390;DHT22;5241;47.830;12.972;2023-06-01T08:33:16;24.50;87.00
10390;DHT22;5241;47.830;12.972;2023-06-01T08:35:42;24.20;86.70
10390;DHT22;5241;47.830;12.972;2023-06-01T08:38:07;23.90;85.30
10390;DHT22;5241;47.830;12.972;2023-06-01T08:40:33;24.40;83.00
10390;DHT22;5241;47.830;12.972;2023-06-01T08:43:12;25.80;82.70
10390;DHT22;5241;47.830;12.972;2023-06-01T08:45:40;26.30;78.50
10390;DHT22;5241;47.830;12.972;2023-06-01T08:48:07;26.20;81.90
10390;DHT22;5241;47.830;12.972;2023-06-01T08:50:34;26.30;80.20
10390;DHT22;5241;47.830;12.972;2023-06-01T08:52:59;26.10;80.20
10390;DHT22;5241;47.830;12.972;2023-06-01T08:55:26;26.10;81.30
10390;DHT22;5241;47.830;12.972;2023-06-01T08:57:55;27.00;79.50
10390;DHT22;5241;47.830;12.972;2023-06-01T09:00:22;27.30;76.60
10390;DHT22;5241;47.830;12.972;2023-06-01T09:02:49;26.90;74.70
10390;DHT22;5241;47.830;12.972;2023-06-01T09:05:15;26.10;79.40
10390;DHT22;5241;47.830;12.972;2023-06-01T09:07:42;26.60;76.80
10390;DHT22;5241;47.830;12.972;2023-06-01T09:10:08;26.30;77.60
10390;DHT22;5241;47.830;12.972;2023-06-01T09:12:34;25.30;80.40
10390;DHT22;5241;47.830;12.972;2023-06-01T09:15:11;25.70;79.60
10390;DHT22;5241;47.830;12.972;2023-06-01T09:17:38;25.50;78.20
10390;DHT22;5241;47.830;12.972;2023-06-01T09:20:04;26.10;77.80
10390;DHT22;5241;47.830;12.972;2023-06-01T09:22:44;26.60;76.00
10390;DHT22;5241;47.830;12.972;2023-06-01T09:25:11;27.00;76.00
10390;DHT22;5241;47.830;12.972;2023-06-01T09:27:47;26.80;76.20
10390;DHT22;5241;47.830;12.972;2023-06-01T09:30:15;27.00;73.90
10390;DHT22;5241;47.830;12.972;2023-06-01T09:32:41;26.90;70.70
10390;DHT22;5241;47.830;12.972;2023-06-01T09:35:08;27.00;70.50
10390;DHT22;5241;47.830;12.972;2023-06-01T09:37:37;26.70;73.70
10390;DHT22;5241;47.830;12.972;2023-06-01T09:40:19;26.50;76.80
10390;DHT22;5241;47.830;12.972;2023-06-01T09:42:44;26.90;73.10
10390;DHT22;5241;47.830;12.972;2023-06-01T09:45:17;27.10;73.30
10390;DHT22;5241;47.830;12.972;2023-06-01T09:47:43;27.10;72.70
10390;DHT22;5241;47.830;12.972;2023-06-01T09:50:09;26.80;70.40
10390;DHT22;5241;47.830;12.972;2023-06-01T09:52:35;27.20;70.00
10390;DHT22;5241;47.830;12.972;2023-06-01T09:55:08;27.00;71.10
10390;DHT22;5241;47.830;12.972;2023-06-01T09:57:34;27.30;72.20
10390;DHT22;5241;47.830;12.972;2023-06-01T10:00:01;27.40;71.60
10390;DHT22;5241;47.830;12.972;2023-06-01T10:02:32;27.60;70.80
10390;DHT22;5241;47.830;12.972;2023-06-01T10:04:58;27.20;72.70
10390;DHT22;5241;47.830;12.972;2023-06-01T10:07:30;27.00;73.80
10390;DHT22;5241;47.830;12.972;2023-06-01T10:09:58;27.40;73.30
10390;DHT22;5241;47.830;12.972;2023-06-01T10:12:26;27.30;68.90
10390;DHT22;5241;47.830;12.972;2023-06-01T10:14:53;27.20;70.10
10390;DHT22;5241;47.830;12.972;2023-06-01T10:17:19;27.50;69.40
10390;DHT22;5241;47.830;12.972;2023-06-01T10:19:45;27.90;66.90
10390;DHT22;5241;47.830;12.972;2023-06-01T10:22:11;27.30;69.80
10390;DHT22;5241;47.830;12.972;2023-06-01T10:24:38;27.70;67.90
10390;DHT22;5241;47.830;12.972;2023-06-01T10:29:32;27.60;69.60
10390;DHT22;5241;47.830;12.972;2023-06-01T10:31:59;27.80;67.70
10390;DHT22;5241;47.830;12.972;2023-06-01T10:34:42;27.70;65.80
10390;DHT22;5241;47.830;12.972;2023-06-01T10:39:34;27.70;65.40
10390;DHT22;5241;47.830;12.972;2023-06-01T10:47:04;28.70;64.10
10390;DHT22;5241;47.830;12.972;2023-06-01T10:57:37;29.00;61.30
10390;DHT22;5241;47.830;12.972;2023-06-01T11:08:04;29.10;62.30
10390;DHT22;5241;47.830;12.972;2023-06-01T11:13:29;28.50;63.30
10390;DHT22;5241;47.830;12.972;2023-06-01T11:18:47;28.20;67.70
10390;DHT22;5241;47.830;12.972;2023-06-01T11:21:17;28.10;65.60
10390;DHT22;5241;47.830;12.972;2023-06-01T11:23:44;28.10;63.30
10390;DHT22;5241;47.830;12.972;2023-06-01T11:26:15;28.40;64.40
10390;DHT22;5241;47.830;12.972;2023-06-01T11:28:45;29.30;62.70
10390;DHT22;5241;47.830;12.972;2023-06-01T11:31:12;29.30;59.30
10390;DHT22;5241;47.830;12.972;2023-06-01T11:33:39;29.80;56.90
10390;DHT22;5241;47.830;12.972;2023-06-01T11:36:08;29.70;57.40
10390;DHT22;5241;47.830;12.972;2023-06-01T11:38:42;30.10;58.40
10390;DHT22;5241;47.830;12.972;2023-06-01T11:41:09;30.20;58.20
10390;DHT22;5241;47.830;12.972;2023-06-01T11:43:35;29.70;60.30
10390;DHT22;5241;47.830;12.972;2023-06-01T11:46:06;29.70;59.90
10390;DHT22;5241;47.830;12.972;2023-06-01T11:48:37;29.80;58.80
10390;DHT22;5241;47.830;12.972;2023-06-01T11:51:04;30.20;58.70
10390;DHT22;5241;47.830;12.972;2023-06-01T11:53:30;30.10;59.50
10390;DHT22;5241;47.830;12.972;2023-06-01T11:55:57;30.30;59.30
10390;DHT22;5241;47.830;12.972;2023-06-01T11:58:27;30.20;59.60
10390;DHT22;5241;47.830;12.972;2023-06-01T12:00:54;29.80;62.80
10390;DHT22;5241;47.830;12.972;2023-06-01T12:03:20;30.60;57.80
10390;DHT22;5241;47.830;12.972;2023-06-01T12:05:46;30.60;58.60
10390;DHT22;5241;47.830;12.972;2023-06-01T12:08:21;30.50;59.80
10390;DHT22;5241;47.830;12.972;2023-06-01T12:10:48;29.80;59.70
10390;DHT22;5241;47.830;12.972;2023-06-01T12:13:15;29.60;59.10
10390;DHT22;5241;47.830;12.972;2023-06-01T12:15:41;29.90;58.60
10390;DHT22;5241;47.830;12.972;2023-06-01T12:18:06;29.80;57.10
10390;DHT22;5241;47.830;12.972;2023-06-01T12:20:33;30.30;58.30
10390;DHT22;5241;47.830;12.972;2023-06-01T12:23:01;29.70;60.10
10390;DHT22;5241;47.830;12.972;2023-06-01T12:25:29;29.70;61.60
10390;DHT22;5241;47.830;12.972;2023-06-01T12:28:02;30.00;58.10
10390;DHT22;5241;47.830;12.972;2023-06-01T12:30:28;30.00;59.10
10390;DHT22;5241;47.830;12.972;2023-06-01T12:32:53;29.60;58.20
10390;DHT22;5241;47.830;12.972;2023-06-01T12:35:19;29.50;59.90
10390;DHT22;5241;47.830;12.972;2023-06-01T12:38:05;30.00;58.00
10390;DHT22;5241;47.830;12.972;2023-06-01T12:40:32;29.90;59.90
10390;DHT22;5241;47.830;12.972;2023-06-01T12:43:02;30.00;59.70
10390;DHT22;5241;47.830;12.972;2023-06-01T12:45:39;29.60;59.90
10390;DHT22;5241;47.830;12.972;2023-06-01T12:48:06;29.40;58.60
10390;DHT22;5241;47.830;12.972;2023-06-01T12:50:32;29.90;58.00
10390;DHT22;5241;47.830;12.972;2023-06-01T12:52:57;29.90;58.60
10390;DHT22;5241;47.830;12.972;2023-06-01T12:55:23;30.50;55.10
10390;DHT22;5241;47.830;12.972;2023-06-01T12:57:53;30.50;56.80
10390;DHT22;5241;47.830;12.972;2023-06-01T13:00:19;31.20;55.40
10390;DHT22;5241;47.830;12.972;2023-06-01T13:02:45;30.70;57.50
10390;DHT22;5241;47.830;12.972;2023-06-01T13:05:15;30.30;56.70
10390;DHT22;5241;47.830;12.972;2023-06-01T13:07:43;30.10;57.50
10390;DHT22;5241;47.830;12.972;2023-06-01T13:10:12;30.30;56.80
10390;DHT22;5241;47.830;12.972;2023-06-01T13:12:39;30.20;55.60
10390;DHT22;5241;47.830;12.972;2023-06-01T13:15:08;29.70;57.40
10390;DHT22;5241;47.830;12.972;2023-06-01T13:17:34;30.30;55.60
10390;DHT22;5241;47.830;12.972;2023-06-01T13:19:59;30.60;54.40
10390;DHT22;5241;47.830;12.972;2023-06-01T13:22:25;30.80;55.10
10390;DHT22;5241;47.830;12.972;2023-06-01T13:24:51;31.00;56.00
10390;DHT22;5241;47.830;12.972;2023-06-01T13:27:16;30.70;54.90
10390;DHT22;5241;47.830;12.972;2023-06-01T13:29:42;30.50;54.80
10390;DHT22;5241;47.830;12.972;2023-06-01T13:32:08;31.00;54.40
10390;DHT22;5241;47.830;12.972;2023-06-01T13:34:34;31.90;51.50
10390;DHT22;5241;47.830;12.972;2023-06-01T13:37:01;32.40;50.20
10390;DHT22;5241;47.830;12.972;2023-06-01T13:39:26;32.50;52.00
10390;DHT22;5241;47.830;12.972;2023-06-01T13:41:52;31.90;51.20
10390;DHT22;5241;47.830;12.972;2023-06-01T13:44:17;31.60;53.10
10390;DHT22;5241;47.830;12.972;2023-06-01T13:46:43;32.10;50.70
10390;DHT22;5241;47.830;12.972;2023-06-01T13:49:09;31.60;51.50
10390;DHT22;5241;47.830;12.972;2023-06-01T13:51:35;31.20;52.90
10390;DHT22;5241;47.830;12.972;2023-06-01T13:54:04;30.50;53.90
10390;DHT22;5241;47.830;12.972;2023-06-01T13:56:29;30.60;53.60
10390;DHT22;5241;47.830;12.972;2023-06-01T13:58:55;30.50;53.60
10390;DHT22;5241;47.830;12.972;2023-06-01T14:01:20;30.70;54.60
10390;DHT22;5241;47.830;12.972;2023-06-01T14:03:46;30.50;52.70
10390;DHT22;5241;47.830;12.972;2023-06-01T14:06:12;31.00;51.80
10390;DHT22;5241;47.830;12.972;2023-06-01T14:08:38;30.80;51.70
10390;DHT22;5241;47.830;12.972;2023-06-01T14:11:03;30.70;53.50
10390;DHT22;5241;47.830;12.972;2023-06-01T14:13:29;31.00;51.10
10390;DHT22;5241;47.830;12.972;2023-06-01T14:15:54;31.10;51.00
10390;DHT22;5241;47.830;12.972;2023-06-01T14:18:20;31.00;51.70
10390;DHT22;5241;47.830;12.972;2023-06-01T14:20:45;31.30;52.50
10390;DHT22;5241;47.830;12.972;2023-06-01T14:23:11;31.50;50.90
10390;DHT22;5241;47.830;12.972;2023-06-01T14:25:37;31.10;51.80
10390;DHT22;5241;47.830;12.972;2023-06-01T14:28:02;30.80;53.00
10390;DHT22;5241;47.830;12.972;2023-06-01T14:30:28;30.60;52.30
10390;DHT22;5241;47.830;12.972;2023-06-01T14:32:53;30.60;51.00
10390;DHT22;5241;47.830;12.972;2023-06-01T14:35:19;30.50;50.30
10390;DHT22;5241;47.830;12.972;2023-06-01T14:37:46;31.20;51.50
10390;DHT22;5241;47.830;12.972;2023-06-01T14:40:11;32.00;49.30
10390;DHT22;5241;47.830;12.972;2023-06-01T14:42:37;31.70;50.30
10390;DHT22;5241;47.830;12.972;2023-06-01T14:45:04;31.40;50.30
10390;DHT22;5241;47.830;12.972;2023-06-01T14:47:30;31.00;51.10
10390;DHT22;5241;47.830;12.972;2023-06-01T14:49:55;30.70;51.50
10390;DHT22;5241;47.830;12.972;2023-06-01T14:52:21;31.30;51.50
10390;DHT22;5241;47.830;12.972;2023-06-01T14:54:47;31.90;49.00
10390;DHT22;5241;47.830;12.972;2023-06-01T14:57:14;31.50;49.80
10390;DHT22;5241;47.830;12.972;2023-06-01T14:59:40;31.50;49.90
10390;DHT22;5241;47.830;12.972;2023-06-01T15:02:06;31.60;49.40
10390;DHT22;5241;47.830;12.972;2023-06-01T15:04:33;31.50;50.00
10390;DHT22;5241;47.830;12.972;2023-06-01T15:06:59;31.80;50.20
10390;DHT22;5241;47.830;12.972;2023-06-01T15:09:25;32.60;47.40
10390;DHT22;5241;47.830;12.972;2023-06-01T15:11:50;32.70;49.70
10390;DHT22;5241;47.830;12.972;2023-06-01T15:14:16;32.10;49.70
10390;DHT22;5241;47.830;12.972;2023-06-01T15:16:42;32.00;49.10
10390;DHT22;5241;47.830;12.972;2023-06-01T15:19:07;31.30;48.80
10390;DHT22;5241;47.830;12.972;2023-06-01T15:21:33;31.00;48.90
10390;DHT22;5241;47.830;12.972;2023-06-01T15:23:59;30.50;50.20
10390;DHT22;5241;47.830;12.972;2023-06-01T15:26:24;30.60;49.00
10390;DHT22;5241;47.830;12.972;2023-06-01T15:28:50;30.40;50.90
10390;DHT22;5241;47.830;12.972;2023-06-01T15:31:15;29.70;52.10
10390;DHT22;5241;47.830;12.972;2023-06-01T15:33:41;29.50;51.20
10390;DHT22;5241;47.830;12.972;2023-06-01T15:36:07;28.80;53.20
10390;DHT22;5241;47.830;12.972;2023-06-01T15:38:33;28.70;52.90
10390;DHT22;5241;47.830;12.972;2023-06-01T15:41:01;28.40;53.90
10390;DHT22;5241;47.830;12.972;2023-06-01T15:43:26;28.20;53.80
10390;DHT22;5241;47.830;12.972;2023-06-01T15:45:52;28.30;53.90
10390;DHT22;5241;47.830;12.972;2023-06-01T15:48:18;28.90;52.60
10390;DHT22;5241;47.830;12.972;2023-06-01T15:50:43;28.80;53.10
10390;DHT22;5241;47.830;12.972;2023-06-01T15:53:09;28.90;52.70
10390;DHT22;5241;47.830;12.972;2023-06-01T15:55:34;28.50;53.40
10390;DHT22;5241;47.830;12.972;2023-06-01T15:58:00;28.30;54.90
10390;DHT22;5241;47.830;12.972;2023-06-01T16:00:26;28.60;55.30
10390;DHT22;5241;47.830;12.972;2023-06-01T16:02:53;28.90;53.90
10390;DHT22;5241;47.830;12.972;2023-06-01T16:05:18;28.70;53.80
10390;DHT22;5241;47.830;12.972;2023-06-01T16:07:44;29.00;52.40
10390;DHT22;5241;47.830;12.972;2023-06-01T16:10:10;29.00;52.70
10390;DHT22;5241;47.830;12.972;2023-06-01T16:12:38;28.50;53.50